• Join FlightAware (Why Join?)
  • Login
  • US Flag 
10:28PM EST


 

Airport Tracker/Info


-or-


 

Live Flight TrackerFlight Track Log ✈ FLG4133 ✈ 24-May-2012 ✈ KMEM - KDFW

Flight Track Log - Related Links

Times and Time Zones

All times are in EDT time to prevent confusion due to time zone crossing. See the FLG4133 flight status page for this flight to view local times or setup timezone preferences in your user account.

Time Position Orientation Groundspeed Altitude Reporting Facility
EDT Latitude Longitude Course Direction KTS MPH feet Rate Location/Type
10:08AM 35.0333 -89.9833 188° South 143 165 900  Level Anchorage Center
10:08AM 34.9983 -89.9892 199° South 146 168 1,900 1,860 Climbing FAA TRACON SMA TRACON (SMA)
10:09AM 34.9628 -90.0039 240° Southwest 195 224 3,300 1,860 Climbing FAA TRACON SMA TRACON (SMA)
10:09AM 34.9422 -90.0469 270° West 235 270 4,400 1,260 Climbing FAA TRACON SMA TRACON (SMA)
10:10AM 34.9422 -90.1025 266° West 260 299 5,000 420 Climbing FAA TRACON SMA TRACON (SMA)
10:11AM 34.9383 -90.1633 265° West 258 297 5,000 960 Level FAA TRACON SMA TRACON (SMA)
10:11AM 34.9344 -90.2172 264° West 257 296 6,300 1,980 Climbing FAA TRACON SMA TRACON (SMA)
10:12AM 34.9297 -90.2767 265° West 255 293 7,700 2,100 Climbing FAA TRACON SMA TRACON (SMA)
10:13AM 34.9253 -90.3392 265° West 263 303 9,100 1,680 Climbing FAA TRACON SMA TRACON (SMA)
10:13AM 34.9211 -90.3989 264° West 272 313 10,000 960 Climbing FAA TRACON SMA TRACON (SMA)
10:14AM 34.9156 -90.4683 265° West 301 346 10,400 780 Climbing FAA TRACON SMA TRACON (SMA)
10:15AM 34.9100 -90.5447 265° West 323 372 11,100 1,020 Climbing FAA TRACON SMA TRACON (SMA)
10:15AM 34.9047 -90.6200 265° West 336 387 11,800 960 Climbing FAA TRACON SMA TRACON (SMA)
10:16AM 34.8994 -90.7011 265° West 350 403 12,400 1,020 Climbing FAA TRACON SMA TRACON (SMA)
10:17AM 34.8931 -90.7842 261° West 361 415 13,200 1,320 Climbing FAA TRACON SMA TRACON (SMA)
10:17AM 34.8828 -90.8675 259° West 365 420 14,200 1,500 Climbing FAA TRACON SMA TRACON (SMA)
10:18AM 34.8708 -90.9456 259° West 367 422 15,200 1,200 Climbing FAA TRACON SMA TRACON (SMA)
10:19AM 34.8622 -91.0014 261° West 365 420 15,900 1,380 Climbing FAA TRACON SMA TRACON (SMA)
10:20AM 34.8442 -91.1414 260° West 371 427 17,500 1,620 Climbing Memphis Center
10:21AM 34.8267 -91.2603 257° West 366 421 19,100 1,440 Climbing Memphis Center
10:22AM 34.8050 -91.3789 259° West 366 421 20,400 1,140 Climbing Memphis Center
10:23AM 34.7853 -91.5000 259° West 366 421 21,400 1,020 Climbing Memphis Center
10:24AM 34.7653 -91.6211 260° West 375 432 22,500 1,080 Climbing Memphis Center
10:25AM 34.7450 -91.7572 259° West 375 432 23,600 1,020 Climbing Memphis Center
10:26AM 34.7247 -91.8808 260° West 375 432 24,600 960 Climbing Memphis Center
10:27AM 34.7067 -92.0017 259° West 369 425 25,600 960 Climbing Memphis Center
10:28AM 34.6861 -92.1250 255° West 375 432 26,600 840 Climbing Memphis Center
10:29AM 34.6594 -92.2458 252° West 375 432 27,300 540 Climbing Memphis Center
10:30AM 34.6306 -92.3561 252° West 375 432 27,700 300 Climbing Memphis Center
10:31AM 34.5969 -92.4842 252° West 386 444 28,000 120 Climbing Memphis Center
10:32AM 34.5614 -92.6142 252° West 398 458 28,000  Level Memphis Center
10:33AM 34.5256 -92.7469 253° West 408 470 28,000  Level Memphis Center
10:34AM 34.4894 -92.8869 252° West 424 488 28,000  Level Memphis Center
10:35AM 34.4511 -93.0269 253° West 429 494 28,000  Level Memphis Center
10:36AM 34.4167 -93.1644 251° West 435 501 28,000  Level Memphis Center
10:37AM 34.3758 -93.3064 253° West 441 507 28,000  Level Memphis Center
10:38AM 34.3383 -93.4522 253° West 440 506 28,000  Level Fort Worth Center
10:39AM 34.3011 -93.5972 252° West 445 512 28,000  Level Fort Worth Center
10:40AM 34.2617 -93.7422 251° West 450 518 28,000  Level Fort Worth Center
10:41AM 34.2219 -93.8847 251° West 450 518 28,000  Level Fort Worth Center
10:42AM 34.1819 -94.0269 251° West 450 518 28,000  Level Fort Worth Center
10:43AM 34.1419 -94.1689 251° West 450 518 28,000  Level Fort Worth Center
10:44AM 34.1017 -94.3108 252° West 450 518 28,000  Level Fort Worth Center
10:45AM 34.0653 -94.4425 251° West 450 518 28,000  Level Fort Worth Center
10:46AM 34.0247 -94.5842 251° West 450 518 28,000  Level Fort Worth Center
10:47AM 33.9839 -94.7258 250° West 450 518 28,000  Level Fort Worth Center
10:48AM 33.9411 -94.8672 251° West 450 518 28,000  Level Fort Worth Center
10:49AM 33.9000 -95.0086 251° West 450 518 28,000  Level Fort Worth Center
10:50AM 33.8586 -95.1500 252° West 450 518 28,000 -120 Level Fort Worth Center
10:51AM 33.8194 -95.2933 248° West 450 518 27,800 -1,140 Descending Fort Worth Center
10:52AM 33.7717 -95.4344 253° West 450 518 25,800 -2,040 Descending Fort Worth Center
10:53AM 33.7361 -95.5703 252° West 445 512 23,800 -2,040 Descending Fort Worth Center
10:54AM 33.7025 -95.6981 252° West 424 488 21,800 -2,040 Descending Fort Worth Center
10:55AM 33.6706 -95.8136 248° West 390 449 19,800 -2,280 Descending Fort Worth Center
10:56AM 33.6306 -95.9342 249° West 364 419 17,300 -2,220 Descending Fort Worth Center
10:57AM 33.6022 -96.0244 250° West 334 384 15,400 -1,980 Descending Fort Worth Center
10:58AM 33.5681 -96.1394 256° West 336 387 13,400 -1,800 Descending Fort Worth Center
10:58AM 33.5547 -96.2050 234° Southwest 355 409 12,600 -1,380 Descending FAA TRACON SMA TRACON (SMA)
10:59AM 33.5178 -96.2656 225° Southwest 369 425 11,700 -1,200 Descending FAA TRACON SMA TRACON (SMA)
11:00AM 33.4683 -96.3258 226° Southwest 364 419 11,000 -540 Descending FAA TRACON SMA TRACON (SMA)
11:00AM 33.4272 -96.3761 223° Southwest 296 341 11,000  Level FAA TRACON SMA TRACON (SMA)
11:01AM 33.3925 -96.4147 224° Southwest 275 316 11,000  Level FAA TRACON SMA TRACON (SMA)
11:02AM 33.3536 -96.4600 224° Southwest 283 326 11,000 -300 Level FAA TRACON SMA TRACON (SMA)
11:02AM 33.3142 -96.5058 244° Southwest 284 327 10,600 -1,080 Descending FAA TRACON SMA TRACON (SMA)
11:03AM 33.2944 -96.5550 251° West 269 310 9,600 -1,680 Descending FAA TRACON SMA TRACON (SMA)
11:04AM 33.2783 -96.6119 261° West 261 300 8,400 -1,920 Descending FAA TRACON SMA TRACON (SMA)
11:04AM 33.2708 -96.6708 262° West 260 299 7,100 -1,740 Descending FAA TRACON SMA TRACON (SMA)
11:05AM 33.2644 -96.7219 265° West 251 289 6,100 -840 Descending FAA TRACON SMA TRACON (SMA)
11:06AM 33.2603 -96.7744 264° West 235 270 6,000 -120 Descending FAA TRACON SMA TRACON (SMA)
11:06AM 33.2553 -96.8283 265° West 237 273 6,000 -180 Level FAA TRACON SMA TRACON (SMA)
11:07AM 33.2514 -96.8772 264° West 240 276 5,800 -720 Descending FAA TRACON SMA TRACON (SMA)
11:08AM 33.2467 -96.9331 242° Southwest 239 275 5,100 -600 Descending FAA TRACON SMA TRACON (SMA)
11:08AM 33.2264 -96.9786 223° Southwest 236 272 5,000 -120 Descending FAA TRACON SMA TRACON (SMA)
11:09AM 33.2003 -97.0075 194° South 206 237 5,000  Level FAA TRACON SMA TRACON (SMA)
11:10AM 33.1706 -97.0164 193° South 173 199 5,000  Level FAA TRACON SMA TRACON (SMA)
11:10AM 33.1406 -97.0247 176° South 166 191 5,000 -300 Level FAA TRACON SMA TRACON (SMA)
11:11AM 33.1044 -97.0217 188° South 181 208 4,600 -900 Descending FAA TRACON SMA TRACON (SMA)
11:12AM 33.0742 -97.0267 180° South 164 189 3,800 -1,380 Descending FAA TRACON SMA TRACON (SMA)
11:12AM 33.0464 -97.0267 178° South 153 176 2,800 -900 Descending FAA TRACON SMA TRACON (SMA)
11:13AM 33.0172 -97.0253 184° South 150 173 2,600 -600 Descending FAA TRACON SMA TRACON (SMA)
11:14AM 32.9922 -97.0272 177° South 134 154 2,000 -780 Descending FAA TRACON SMA TRACON (SMA)
11:14AM 32.9700 -97.0258 179° South 120 138 1,600 -600 Descending FAA TRACON SMA TRACON (SMA)
11:15AM 32.9464 -97.0256 180° South 120 138 1,200 -600 Descending FAA TRACON SMA TRACON (SMA)
11:16AM 32.9247 -97.0256 201° Southwest 126 145 800 -600 Descending FAA TRACON SMA TRACON (SMA)
11:23AM 32.4542 -97.2343 201° Southwest  Level Estimated